createdAt,value
2023-03-11T00:00:32.966Z,14.95
2023-03-11T00:03:01.524Z,11.10
2023-03-11T00:05:33.014Z,11.30
2023-03-11T00:08:00.321Z,12.93
2023-03-11T00:13:00.864Z,10.68
2023-03-11T00:15:28.843Z,12.13
2023-03-11T00:17:56.003Z,11.52
2023-03-11T00:20:30.598Z,10.95
2023-03-11T00:22:58.244Z,10.90
2023-03-11T00:25:27.934Z,10.40
2023-03-11T00:27:55.764Z,10.05
2023-03-11T00:30:24.282Z,10.63
2023-03-11T00:32:56.959Z,9.77
2023-03-11T00:35:31.276Z,11.25
2023-03-11T00:38:03.912Z,10.55
2023-03-11T00:40:31.821Z,10.85
2023-03-11T00:43:01.858Z,10.60
2023-03-11T00:45:32.717Z,10.30
2023-03-11T00:47:59.543Z,11.18
2023-03-11T00:50:33.557Z,10.23
2023-03-11T00:53:00.953Z,12.07
2023-03-11T00:55:33.741Z,11.52
2023-03-11T00:58:08.300Z,12.55
2023-03-11T01:00:41.824Z,12.32
2023-03-11T01:03:10.994Z,14.07
2023-03-11T01:05:37.537Z,15.30
2023-03-11T01:08:11.887Z,13.05
2023-03-11T01:10:38.613Z,12.25
2023-03-11T01:13:05.452Z,11.65
2023-03-11T01:15:36.892Z,13.95
2023-03-11T01:18:05.655Z,16.77
2023-03-11T01:20:33.864Z,15.30
2023-03-11T01:23:02.037Z,11.75
2023-03-11T01:25:29.835Z,13.75
2023-03-11T01:27:58.628Z,12.55
2023-03-11T01:30:27.018Z,15.38
2023-03-11T01:33:00.418Z,14.55
2023-03-11T01:35:35.745Z,11.63
2023-03-11T01:38:04.713Z,13.30
2023-03-11T01:40:41.725Z,12.05
2023-03-11T01:43:58.961Z,12.35
2023-03-11T01:46:59.860Z,12.00
2023-03-11T01:49:30.836Z,14.57
2023-03-11T01:52:03.777Z,13.27
2023-03-11T01:54:36.917Z,12.98
2023-03-11T01:57:10.737Z,12.93
2023-03-11T01:59:42.346Z,14.75
2023-03-11T02:02:16.650Z,14.23
2023-03-11T02:04:44.477Z,13.25
2023-03-11T02:07:12.506Z,13.48
2023-03-11T02:09:41.908Z,14.73
2023-03-11T02:12:11.831Z,12.75
2023-03-11T02:14:43.058Z,13.50
2023-03-11T02:17:10.329Z,13.98
2023-03-11T02:20:12.660Z,12.20
2023-03-11T02:22:43.851Z,14.70
2023-03-11T02:25:22.949Z,11.82
2023-03-11T02:27:53.606Z,13.60
2023-03-11T02:30:24.152Z,15.05
2023-03-11T02:32:51.216Z,13.82
2023-03-11T02:35:21.004Z,11.55
2023-03-11T02:37:50.990Z,14.90
2023-03-11T02:40:24.156Z,12.48
2023-03-11T02:43:03.639Z,13.10
2023-03-11T02:45:32.376Z,11.67
2023-03-11T02:48:01.476Z,10.77
2023-03-11T02:50:31.279Z,13.73
2023-03-11T02:52:57.966Z,13.82
2023-03-11T02:55:24.640Z,14.35
2023-03-11T02:57:51.213Z,15.88
2023-03-11T03:00:18.966Z,15.10
2023-03-11T03:02:54.047Z,12.13
2023-03-11T03:05:22.703Z,14.52
2023-03-11T03:07:51.830Z,14.15
2023-03-11T03:10:20.369Z,12.95
2023-03-11T03:12:49.298Z,17.35
2023-03-11T03:15:16.269Z,14.15
2023-03-11T03:17:46.211Z,16.02
2023-03-11T03:20:14.030Z,13.90
2023-03-11T03:22:45.590Z,11.95
2023-03-11T03:25:16.035Z,11.85
2023-03-11T03:27:42.695Z,12.68
2023-03-11T03:30:10.257Z,12.38
2023-03-11T03:32:37.723Z,11.05
2023-03-11T03:35:07.198Z,12.85
2023-03-11T03:37:59.876Z,13.00
2023-03-11T03:40:26.771Z,9.63
2023-03-11T03:42:55.502Z,10.43
2023-03-11T03:45:22.437Z,10.30
2023-03-11T03:47:51.869Z,9.68
2023-03-11T03:50:19.968Z,12.25
2023-03-11T03:52:51.973Z,10.30
2023-03-11T03:55:21.052Z,13.43
2023-03-11T03:57:48.029Z,10.27
2023-03-11T04:00:15.908Z,11.43
2023-03-11T04:02:46.888Z,9.57
2023-03-11T04:05:22.506Z,11.73
2023-03-11T04:07:49.469Z,12.35
2023-03-11T04:10:19.467Z,10.15
2023-03-11T04:12:49.998Z,10.93
2023-03-11T04:15:20.393Z,13.70
2023-03-11T04:17:47.971Z,11.65
2023-03-11T04:20:14.618Z,11.68
2023-03-11T04:22:44.433Z,12.30
2023-03-11T04:25:13.472Z,13.07
2023-03-11T04:27:42.692Z,9.05
2023-03-11T04:30:13.163Z,10.75
2023-03-11T04:32:40.105Z,11.13
2023-03-11T04:35:06.954Z,10.15
2023-03-11T04:37:34.427Z,8.35
2023-03-11T04:40:05.916Z,10.25
2023-03-11T04:42:34.133Z,9.40
2023-03-11T04:45:01.204Z,10.30
2023-03-11T04:47:29.916Z,9.20
2023-03-11T04:49:57.132Z,10.15
2023-03-11T04:52:24.438Z,11.48
2023-03-11T04:54:51.641Z,10.73
2023-03-11T04:57:18.770Z,9.85
2023-03-11T05:02:17.112Z,8.65
2023-03-11T05:04:51.114Z,11.90
2023-03-11T05:07:19.633Z,10.90
2023-03-11T05:09:47.882Z,10.05
2023-03-11T05:12:14.509Z,11.18
2023-03-11T05:14:52.650Z,10.10
2023-03-11T05:17:19.700Z,10.60
2023-03-11T05:19:48.936Z,11.82
2023-03-11T05:22:23.912Z,11.50
2023-03-11T05:24:50.615Z,11.80
2023-03-11T05:27:18.152Z,10.10
2023-03-11T05:29:48.110Z,9.60
2023-03-11T05:32:15.653Z,10.32
2023-03-11T05:34:44.289Z,13.18
2023-03-11T05:37:11.342Z,11.50
2023-03-11T05:39:38.752Z,10.85
2023-03-11T05:42:07.706Z,11.18
2023-03-11T05:44:35.766Z,8.85
2023-03-11T05:47:02.963Z,11.30
2023-03-11T05:49:31.510Z,13.15
2023-03-11T05:52:00.823Z,13.23
2023-03-11T05:54:29.079Z,10.07
2023-03-11T05:56:56.073Z,10.45
2023-03-11T05:59:24.198Z,12.05
2023-03-11T06:01:59.528Z,11.75
2023-03-11T06:04:26.249Z,9.82
2023-03-11T06:06:53.561Z,9.18
2023-03-11T06:09:23.601Z,10.70
2023-03-11T06:11:54.069Z,10.63
2023-03-11T06:14:29.072Z,10.48
2023-03-11T06:16:55.785Z,9.98
2023-03-11T06:19:26.575Z,11.73
2023-03-11T06:21:56.556Z,9.23
2023-03-11T06:24:23.149Z,11.35
2023-03-11T06:26:53.434Z,10.52
2023-03-11T06:29:24.467Z,10.27
2023-03-11T06:31:53.389Z,11.68
2023-03-11T06:34:20.042Z,10.57
2023-03-11T06:36:49.216Z,12.00
2023-03-11T06:39:17.975Z,10.20
2023-03-11T06:41:47.860Z,9.55
2023-03-11T06:44:14.472Z,10.13
2023-03-11T06:46:44.427Z,11.23
2023-03-11T06:49:14.392Z,10.00
2023-03-11T06:51:44.339Z,11.98
2023-03-11T06:54:15.505Z,10.38
2023-03-11T06:56:45.132Z,8.93
2023-03-11T06:59:15.618Z,8.45
2023-03-11T07:01:42.629Z,9.38
2023-03-11T07:04:10.810Z,10.07
2023-03-11T07:06:41.684Z,9.70
2023-03-11T07:09:15.523Z,10.98
2023-03-11T07:11:44.541Z,10.35
2023-03-11T07:14:18.858Z,9.68
2023-03-11T07:16:49.341Z,10.93
2023-03-11T07:19:27.964Z,10.55
2023-03-11T07:21:58.875Z,10.75
2023-03-11T07:24:25.548Z,9.38
2023-03-11T07:26:52.202Z,9.90
2023-03-11T07:29:22.045Z,11.45
2023-03-11T07:31:49.584Z,9.68
2023-03-11T07:34:19.326Z,9.10
2023-03-11T07:36:45.845Z,9.38
2023-03-11T07:39:18.742Z,10.45
2023-03-11T07:41:46.246Z,9.75
2023-03-11T07:44:15.826Z,9.15
2023-03-11T07:46:43.111Z,8.50
2023-03-11T07:49:10.266Z,9.63
2023-03-11T07:51:38.313Z,9.65
2023-03-11T07:54:05.656Z,9.23
2023-03-11T07:56:34.767Z,8.43
2023-03-11T07:59:04.646Z,8.10
2023-03-11T08:01:41.343Z,9.98
2023-03-11T08:06:37.027Z,9.30
2023-03-11T08:09:11.809Z,7.95
2023-03-11T08:11:39.338Z,7.70
2023-03-11T08:14:06.302Z,7.85
2023-03-11T08:16:33.564Z,6.78
2023-03-11T08:19:00.117Z,8.00
2023-03-11T08:21:29.839Z,8.43
2023-03-11T08:24:01.991Z,6.82
2023-03-11T08:26:31.266Z,6.30
2023-03-11T08:28:59.285Z,7.47
2023-03-11T08:31:29.678Z,8.77
2023-03-11T08:34:02.148Z,7.75
2023-03-11T08:36:29.724Z,6.35
2023-03-11T08:38:59.228Z,9.48
2023-03-11T08:41:26.763Z,7.28
2023-03-11T08:43:55.582Z,6.68
2023-03-11T08:46:34.250Z,8.30
2023-03-11T08:49:04.274Z,7.88
2023-03-11T08:51:33.124Z,7.75
2023-03-11T08:54:00.504Z,7.60
2023-03-11T08:56:29.258Z,7.75
2023-03-11T08:58:56.069Z,7.85
2023-03-11T09:01:23.791Z,5.65
2023-03-11T09:03:50.598Z,5.32
2023-03-11T09:06:18.411Z,7.00
2023-03-11T09:08:46.348Z,7.40
2023-03-11T09:11:14.556Z,8.68
2023-03-11T09:13:42.375Z,8.30
2023-03-11T09:16:13.936Z,5.93
2023-03-11T09:18:40.801Z,7.13
2023-03-11T09:21:07.748Z,7.55
2023-03-11T09:23:39.082Z,5.38
2023-03-11T09:26:08.631Z,5.13
2023-03-11T09:28:38.135Z,6.95
2023-03-11T09:31:05.428Z,6.38
2023-03-11T09:33:38.716Z,5.95
2023-03-11T09:36:09.101Z,6.95
2023-03-11T09:38:35.725Z,8.07
2023-03-11T09:41:17.712Z,4.95
2023-03-11T09:44:11.633Z,5.70
2023-03-11T09:46:54.515Z,8.38
2023-03-11T09:49:34.923Z,5.40
2023-03-11T09:52:25.417Z,7.25
2023-03-11T09:54:55.831Z,6.50
2023-03-11T09:57:32.137Z,6.43
2023-03-11T10:00:04.325Z,3.83
2023-03-11T10:02:40.151Z,5.28
2023-03-11T10:05:14.549Z,3.72
2023-03-11T10:07:45.464Z,5.13
2023-03-11T10:10:16.069Z,5.47
2023-03-11T10:12:51.824Z,4.32
2023-03-11T10:15:24.782Z,4.15
2023-03-11T10:18:19.738Z,3.40
2023-03-11T10:21:29.167Z,3.78
2023-03-11T10:24:31.308Z,4.18
2023-03-11T10:27:03.411Z,5.82
2023-03-11T10:29:40.308Z,2.78
2023-03-11T10:34:57.035Z,6.63
2023-03-11T10:37:49.299Z,4.43
2023-03-11T10:40:32.387Z,3.70
2023-03-11T10:43:04.802Z,4.47
2023-03-11T10:45:41.430Z,4.05
2023-03-11T10:50:46.196Z,4.95
2023-03-11T10:53:21.700Z,4.30
2023-03-11T10:55:52.002Z,4.78
2023-03-11T10:58:23.980Z,4.55
2023-03-11T11:01:11.335Z,6.25
2023-03-11T11:03:42.442Z,4.47
2023-03-11T11:06:31.702Z,7.90
2023-03-11T11:09:26.881Z,7.43
2023-03-11T11:12:18.599Z,4.25
2023-03-11T11:14:51.203Z,4.18
2023-03-11T11:17:30.704Z,5.95
2023-03-11T11:19:59.798Z,5.93
2023-03-11T11:22:32.288Z,7.15
2023-03-11T11:24:59.497Z,6.03
2023-03-11T11:27:34.558Z,3.47
2023-03-11T11:30:17.632Z,3.33
2023-03-11T11:32:44.360Z,4.30
2023-03-11T11:35:14.247Z,5.15
2023-03-11T11:37:49.157Z,3.92
2023-03-11T11:40:16.603Z,3.15
2023-03-11T11:42:55.931Z,4.00
2023-03-11T11:45:31.803Z,8.43
2023-03-11T11:48:03.890Z,4.63
2023-03-11T11:50:37.893Z,5.03
2023-03-11T11:53:15.799Z,4.45
2023-03-11T11:55:49.709Z,3.55
2023-03-11T11:58:17.113Z,4.25
2023-03-11T12:01:05.438Z,4.13
2023-03-11T12:03:31.986Z,2.40
2023-03-11T12:06:05.345Z,2.90
2023-03-11T12:08:47.349Z,4.90
2023-03-11T12:11:41.824Z,7.05
2023-03-11T12:14:11.730Z,4.78
2023-03-11T12:16:46.340Z,4.28
2023-03-11T12:19:54.593Z,3.65
2023-03-11T12:22:39.377Z,5.07
2023-03-11T12:25:32.772Z,5.70
2023-03-11T12:28:09.738Z,3.75
2023-03-11T12:33:12.611Z,4.00
2023-03-11T12:35:39.640Z,2.92
2023-03-11T12:38:43.803Z,3.58
2023-03-11T12:41:14.278Z,5.45
2023-03-11T12:43:41.023Z,5.22
2023-03-11T12:46:09.990Z,3.88
2023-03-11T12:48:52.321Z,2.80
2023-03-11T12:51:34.446Z,3.03
2023-03-11T12:54:21.978Z,2.90
2023-03-11T12:57:01.381Z,2.10
2023-03-11T12:59:55.720Z,8.73
2023-03-11T13:02:31.395Z,2.65
2023-03-11T13:05:04.824Z,2.75
2023-03-11T13:08:00.623Z,2.67
2023-03-11T13:10:40.135Z,3.85
2023-03-11T13:13:25.331Z,2.33
2023-03-11T13:15:52.782Z,1.83
2023-03-11T13:18:25.974Z,2.92
2023-03-11T13:20:58.782Z,5.13
2023-03-11T13:23:28.364Z,2.95
2023-03-11T13:26:18.057Z,2.35
2023-03-11T13:29:09.498Z,6.70
2023-03-11T13:32:04.176Z,2.78
2023-03-11T13:35:01.167Z,4.50
2023-03-11T13:38:13.966Z,1.95
2023-03-11T13:40:42.341Z,6.75
2023-03-11T13:43:19.558Z,3.45
2023-03-11T13:48:45.540Z,3.90
2023-03-11T13:51:41.388Z,3.83
2023-03-11T13:54:20.305Z,2.65
2023-03-11T13:56:54.085Z,3.78
2023-03-11T13:59:25.940Z,2.85
2023-03-11T14:01:59.491Z,1.25
2023-03-11T14:04:31.909Z,5.50
2023-03-11T14:07:00.166Z,3.70
2023-03-11T14:09:28.597Z,3.15
2023-03-11T14:12:09.474Z,4.45
2023-03-11T14:14:53.471Z,3.50
2023-03-11T14:17:20.491Z,2.65
2023-03-11T14:22:38.039Z,2.35
2023-03-11T14:25:10.423Z,2.83
2023-03-11T14:27:53.461Z,2.17
2023-03-11T14:30:24.007Z,2.13
2023-03-11T14:33:04.000Z,3.38
2023-03-11T14:35:33.870Z,3.03
2023-03-11T14:38:19.923Z,2.25
2023-03-11T14:40:55.120Z,3.33
2023-03-11T14:43:22.911Z,3.85
2023-03-11T14:45:52.346Z,1.85
2023-03-11T14:48:39.687Z,4.05
2023-03-11T14:51:14.455Z,3.05
2023-03-11T14:53:46.701Z,4.65
2023-03-11T14:56:19.119Z,3.42
2023-03-11T14:59:07.179Z,3.75
2023-03-11T15:01:41.061Z,4.13
2023-03-11T15:04:26.924Z,3.92
2023-03-11T15:06:55.444Z,4.00
2023-03-11T15:09:24.081Z,9.52
2023-03-11T15:11:55.363Z,11.50
2023-03-11T15:14:26.455Z,13.15
2023-03-11T15:16:54.917Z,4.10
2023-03-11T15:19:27.701Z,3.45
2023-03-11T15:22:06.552Z,2.63
2023-03-11T15:24:35.276Z,4.30
2023-03-11T15:27:09.835Z,3.50
2023-03-11T15:29:37.258Z,4.30
2023-03-11T15:32:28.947Z,2.70
2023-03-11T15:35:07.931Z,1.45
2023-03-11T15:37:34.862Z,4.15
2023-03-11T15:42:42.572Z,3.28
2023-03-11T15:45:14.925Z,3.38
2023-03-11T15:47:42.021Z,3.65
2023-03-11T15:50:24.738Z,1.70
2023-03-11T15:52:54.444Z,3.72
2023-03-11T15:55:21.245Z,3.45
2023-03-11T15:57:49.221Z,2.63
2023-03-11T16:00:22.428Z,2.35
2023-03-11T16:02:50.108Z,1.65
2023-03-11T16:05:22.446Z,1.27
2023-03-11T16:07:49.542Z,2.13
2023-03-11T16:12:45.941Z,4.78
2023-03-11T16:15:25.052Z,4.32
2023-03-11T16:17:56.619Z,5.78
2023-03-11T16:20:25.295Z,2.45
2023-03-11T16:22:58.602Z,2.80
2023-03-11T16:25:33.234Z,5.10
2023-03-11T16:28:00.516Z,3.20
2023-03-11T16:30:29.434Z,2.72
2023-03-11T16:32:56.400Z,2.53
2023-03-11T16:35:23.235Z,2.53
2023-03-11T16:37:50.095Z,2.55
2023-03-11T16:40:28.416Z,4.05
2023-03-11T16:43:06.352Z,2.65
2023-03-11T16:45:33.035Z,4.95
2023-03-11T16:47:59.869Z,3.25
2023-03-11T16:50:29.787Z,3.83
2023-03-11T16:52:58.986Z,2.53
2023-03-11T16:55:26.701Z,4.07
2023-03-11T16:57:54.763Z,2.63
2023-03-11T17:00:24.861Z,4.53
2023-03-11T17:02:51.476Z,4.55
2023-03-11T17:05:18.357Z,3.92
2023-03-11T17:07:45.203Z,3.42
2023-03-11T17:10:12.201Z,6.88
2023-03-11T17:15:08.615Z,2.95
2023-03-11T17:17:35.701Z,3.30
2023-03-11T17:22:28.876Z,9.82
2023-03-11T17:24:58.672Z,4.20
2023-03-11T17:27:26.138Z,5.60
2023-03-11T17:29:54.734Z,2.85
2023-03-11T17:32:21.510Z,4.43
2023-03-11T17:34:48.242Z,2.95
2023-03-11T17:37:14.942Z,2.78
2023-03-11T17:39:41.534Z,3.65
2023-03-11T17:42:09.909Z,5.93
2023-03-11T17:44:50.634Z,4.25
2023-03-11T17:47:19.732Z,5.30
2023-03-11T17:49:47.410Z,4.65
2023-03-11T17:52:14.083Z,6.22
2023-03-11T17:54:40.701Z,6.50
2023-03-11T17:57:07.415Z,6.13
2023-03-11T17:59:34.182Z,10.63
2023-03-11T18:02:00.895Z,4.32
2023-03-11T18:04:28.234Z,7.93
2023-03-11T18:09:22.967Z,3.55
2023-03-11T18:11:49.594Z,4.18
2023-03-11T18:14:16.571Z,6.82
2023-03-11T18:16:43.223Z,5.03
2023-03-11T18:19:12.022Z,4.68
2023-03-11T18:21:38.732Z,5.75
2023-03-11T18:24:05.907Z,4.35
2023-03-11T18:26:33.021Z,5.20
2023-03-11T18:31:30.139Z,9.80
2023-03-11T18:33:59.523Z,6.65
2023-03-11T18:36:28.557Z,10.00
2023-03-11T18:38:57.195Z,6.78
2023-03-11T18:41:24.777Z,5.47
2023-03-11T18:43:57.466Z,3.72
2023-03-11T18:46:25.799Z,5.28
2023-03-11T18:48:59.355Z,6.25
2023-03-11T18:51:28.221Z,4.45
2023-03-11T18:53:54.834Z,7.00
2023-03-11T18:56:21.466Z,3.63
2023-03-11T18:58:50.840Z,4.03
2023-03-11T19:01:20.494Z,4.75
2023-03-11T19:03:56.118Z,6.45
2023-03-11T19:06:25.627Z,2.80
2023-03-11T19:08:53.269Z,4.20
2023-03-11T19:11:22.651Z,5.68
2023-03-11T19:13:49.349Z,4.57
2023-03-11T19:16:18.960Z,3.78
2023-03-11T19:18:48.691Z,3.42
2023-03-11T19:21:16.311Z,3.75
2023-03-11T19:23:44.610Z,2.95
2023-03-11T19:26:11.515Z,7.18
2023-03-11T19:28:38.374Z,5.40
2023-03-11T19:33:32.848Z,2.92
2023-03-11T19:36:01.388Z,3.53
2023-03-11T19:38:29.153Z,4.70
2023-03-11T19:41:08.662Z,3.33
2023-03-11T19:43:35.769Z,4.10
2023-03-11T19:46:09.618Z,4.18
2023-03-11T19:48:36.310Z,5.05
2023-03-11T19:51:05.696Z,3.45
2023-03-11T19:53:32.879Z,3.53
2023-03-11T19:55:59.623Z,4.13
2023-03-11T19:58:30.239Z,6.43
2023-03-11T20:01:00.085Z,4.18
2023-03-11T20:03:26.854Z,5.18
2023-03-11T20:05:56.532Z,3.92
2023-03-11T20:08:25.856Z,3.22
2023-03-11T20:10:53.537Z,4.13
2023-03-11T20:13:21.451Z,3.78
2023-03-11T20:15:48.793Z,3.83
2023-03-11T20:18:18.444Z,3.50
2023-03-11T20:20:46.644Z,6.70
2023-03-11T20:23:15.785Z,4.93
2023-03-11T20:25:42.592Z,3.63
2023-03-11T20:28:09.714Z,5.72
2023-03-11T20:33:05.501Z,4.53
2023-03-11T20:35:32.236Z,4.45
2023-03-11T20:38:02.799Z,7.00
2023-03-11T20:40:29.884Z,5.47
2023-03-11T20:45:23.104Z,3.97
2023-03-11T20:47:53.542Z,5.15
2023-03-11T20:50:23.726Z,3.38
2023-03-11T20:52:51.111Z,6.55
2023-03-11T20:55:18.471Z,3.47
2023-03-11T20:57:49.911Z,4.35
2023-03-11T21:00:20.470Z,4.95
2023-03-11T21:02:47.326Z,5.75
2023-03-11T21:05:14.046Z,5.90
2023-03-11T21:07:41.159Z,8.25
2023-03-11T21:12:39.016Z,8.18
2023-03-11T21:15:07.605Z,8.32
2023-03-11T21:17:37.425Z,7.63
2023-03-11T21:20:06.335Z,6.63
2023-03-11T21:22:36.169Z,7.50
2023-03-11T21:25:03.255Z,3.90
2023-03-11T21:27:30.570Z,5.68
2023-03-11T21:29:58.998Z,3.60
2023-03-11T21:32:28.895Z,4.38
2023-03-11T21:34:57.804Z,4.32
2023-03-11T21:37:24.863Z,4.15
2023-03-11T21:42:18.894Z,3.08
2023-03-11T21:44:45.707Z,4.57
2023-03-11T21:47:12.558Z,5.97
2023-03-11T21:49:39.454Z,3.05
2023-03-11T21:52:06.732Z,4.68
2023-03-11T21:54:35.915Z,4.38
2023-03-11T21:57:05.577Z,3.20
2023-03-11T21:59:32.311Z,4.13
2023-03-11T22:02:02.713Z,5.78
2023-03-11T22:04:31.445Z,3.80
2023-03-11T22:06:58.291Z,5.75
2023-03-11T22:09:29.897Z,3.88
2023-03-11T22:11:56.590Z,3.38
2023-03-11T22:14:24.061Z,4.38
2023-03-11T22:16:51.553Z,6.70
2023-03-11T22:19:23.392Z,5.65
2023-03-11T22:21:50.059Z,5.43
2023-03-11T22:24:17.494Z,5.13
2023-03-11T22:26:46.516Z,5.28
2023-03-11T22:29:15.646Z,3.58
2023-03-11T22:31:44.596Z,4.82
2023-03-11T22:34:11.286Z,6.32
2023-03-11T22:36:37.939Z,6.68
2023-03-11T22:39:07.626Z,3.70
2023-03-11T22:41:34.276Z,6.53
2023-03-11T22:44:01.024Z,6.38
2023-03-11T22:46:30.778Z,3.13
2023-03-11T22:49:00.680Z,5.53
2023-03-11T22:51:30.023Z,7.63
2023-03-11T22:53:56.761Z,6.57
2023-03-11T22:56:24.923Z,4.32
2023-03-11T22:58:51.834Z,6.60
2023-03-11T23:01:21.319Z,5.28
2023-03-11T23:03:47.958Z,7.93
2023-03-11T23:06:16.558Z,3.78
2023-03-11T23:08:43.525Z,6.65
2023-03-11T23:11:12.110Z,5.43
2023-03-11T23:13:40.646Z,5.28
2023-03-11T23:16:10.678Z,5.43
2023-03-11T23:18:37.863Z,8.07
2023-03-11T23:21:04.759Z,5.22
2023-03-11T23:23:31.393Z,6.22
2023-03-11T23:25:57.897Z,6.78
2023-03-11T23:28:24.481Z,4.00
2023-03-11T23:30:51.072Z,3.97
2023-03-11T23:33:26.092Z,4.30
2023-03-11T23:35:52.659Z,4.38
2023-03-11T23:38:22.095Z,3.08
2023-03-11T23:40:48.893Z,7.70
2023-03-11T23:43:15.973Z,3.40
2023-03-11T23:48:11.823Z,3.65
2023-03-11T23:50:41.603Z,3.42
2023-03-11T23:53:08.619Z,2.45
2023-03-11T23:58:05.447Z,2.38
